関東・中部TAF電文


百里(RJAH)
5/25 14h
TAF RJAH 250505Z 2506/2612 12012KT 9999 FEW030 BECMG 2507/2509
08005KT BECMG 2521/2600 18010KT=

成田(RJAA)
5/25 14h
TAF RJAA 250505Z 2506/2612 10010KT 9999 FEW030 BECMG 2511/2513
35004KT BECMG 2521/2600 16012KT=

羽田(RJTT)
5/25 14h
TAF RJTT 250505Z 2506/2612 16012KT 9999 FEW030 BECMG 2512/2514
08005KT BECMG 2600/2603 18016KT=

新潟(RJSN)
5/25 14h
TAF RJSN 250505Z 2506/2612 04008KT 9999 FEW020 BECMG 2600/2603
34008KT BECMG 2606/2609 05006KT=

富山(RJNT)
5/25 14h
TAF RJNT 250505Z 2506/2612 02011KT 9999 FEW020 BECMG 2510/2512
23005KT BECMG 2521/2600 33008KT BECMG 2609/2612 19014KT=

小松(RJNK)
5/25 14h
TAF RJNK 250505Z 2506/2612 02014KT 9999 FEW025 BECMG 2515/2517
13004KT BECMG 2521/2600 32006KT BECMG 2609/2612 19012KT=

静岡(RJNS)
5/25 14h
TAF RJNS 250505Z 2506/2612 16005KT 9999 FEW015 BKN030 BECMG
2514/2516 34004KT BECMG 2521/2600 14008KT=

中部国際(RJGG)
5/25 14h
TAF RJGG 250505Z 2506/2612 23010KT 9999 FEW030 BECMG 2512/2514
33006KT BECMG 2518/2521 15012KT=
Copyright(c) 2014 International Meteorological & Oceanographic Consultants Co,.Ltd. All Rights Reserved. Design by http://f-tpl.com